createdAt,value
2022-08-02T00:00:14.853Z,59.2350
2022-08-02T00:01:15.036Z,59.4740
2022-08-02T00:02:17.307Z,59.5560
2022-08-02T00:03:19.565Z,59.7770
2022-08-02T00:04:21.792Z,59.6840
2022-08-02T00:05:24.083Z,59.4740
2022-08-02T00:06:26.360Z,59.3550
2022-08-02T00:07:28.752Z,59.0910
2022-08-02T00:08:28.755Z,59.2450
2022-08-02T00:09:31.002Z,59.4500
2022-08-02T00:10:33.282Z,59.7250
2022-08-02T00:11:35.563Z,59.6690
2022-08-02T00:12:37.858Z,59.6720
2022-08-02T00:13:40.037Z,59.6210
2022-08-02T00:14:42.287Z,59.5340
2022-08-02T00:15:44.573Z,59.6820
2022-08-02T00:16:44.709Z,59.5610
2022-08-02T00:17:48.507Z,59.6330
2022-08-02T00:19:57.956Z,59.6840
2022-08-02T00:21:00.093Z,59.6140
2022-08-02T00:22:02.228Z,59.8830
2022-08-02T00:23:04.470Z,59.7470
2022-08-02T00:24:30.096Z,59.6930
2022-08-02T00:25:06.821Z,59.7600
2022-08-02T00:26:09.095Z,59.7470
2022-08-02T00:27:11.363Z,59.6440
2022-08-02T00:28:13.617Z,59.5730
2022-08-02T00:29:15.823Z,59.6140
2022-08-02T00:30:18.052Z,59.5370
2022-08-02T00:31:20.314Z,59.4080
2022-08-02T00:32:20.422Z,59.2490
2022-08-02T00:34:27.087Z,59.4150
2022-08-02T00:34:28.761Z,59.6390
2022-08-02T00:35:27.188Z,59.7800
2022-08-02T00:36:29.431Z,59.7330
2022-08-02T00:37:31.706Z,59.7650
2022-08-02T00:38:34.008Z,59.8920
2022-08-02T00:39:36.239Z,59.9200
2022-08-02T00:40:38.479Z,59.8600
2022-08-02T00:41:38.584Z,59.9340
2022-08-02T00:42:40.809Z,59.9000
2022-08-02T00:43:43.050Z,59.9340
2022-08-02T00:44:45.244Z,59.9870
2022-08-02T00:46:03.277Z,60.1550
2022-08-02T00:46:49.766Z,60.2730
2022-08-02T00:47:52.026Z,60.1740
2022-08-02T00:48:54.353Z,60.1770
2022-08-02T00:49:56.561Z,60.1430
2022-08-02T00:50:58.775Z,60.1560
2022-08-02T00:51:58.881Z,60.3750
2022-08-02T00:53:01.124Z,60.6750
2022-08-02T00:54:03.393Z,60.6420
2022-08-02T00:55:05.600Z,60.6820
2022-08-02T00:56:07.870Z,60.7810
2022-08-02T00:57:10.148Z,60.8850
2022-08-02T00:58:12.432Z,60.8720
2022-08-02T00:59:14.737Z,60.8230
2022-08-02T01:00:14.834Z,61.1130
2022-08-02T01:01:17.178Z,61.1020
2022-08-02T01:02:19.354Z,61.0940
2022-08-02T01:03:21.549Z,61.1090
2022-08-02T01:04:30.728Z,60.9670
2022-08-02T01:05:26.100Z,61.0110
2022-08-02T01:06:28.370Z,60.9410
2022-08-02T01:07:30.638Z,60.7580
2022-08-02T01:08:32.906Z,60.6580
2022-08-02T01:09:33.063Z,60.5220
2022-08-02T01:10:35.296Z,60.6140
2022-08-02T01:11:37.569Z,60.6690
2022-08-02T01:12:39.830Z,60.6400
2022-08-02T01:13:42.082Z,60.6620
2022-08-02T01:14:44.359Z,60.4900
2022-08-02T01:15:46.560Z,60.5200
2022-08-02T01:16:48.766Z,60.3240
2022-08-02T01:17:51.016Z,60.1520
2022-08-02T01:18:53.252Z,60.2500
2022-08-02T01:19:53.384Z,60.6070
2022-08-02T01:20:55.596Z,60.6180
2022-08-02T01:21:57.845Z,60.6510
2022-08-02T01:23:01.903Z,60.9510
2022-08-02T01:24:02.358Z,61.0980
2022-08-02T01:25:04.661Z,61.0550
2022-08-02T01:26:06.856Z,61.0880
2022-08-02T01:27:09.043Z,61.2290
2022-08-02T01:28:11.300Z,61.0630
2022-08-02T01:29:11.411Z,61.0490
2022-08-02T01:30:13.699Z,61.2240
2022-08-02T01:31:15.930Z,61.1170
2022-08-02T01:32:18.185Z,61.0330
2022-08-02T01:33:20.436Z,60.9400
2022-08-02T01:34:22.686Z,60.6800
2022-08-02T01:35:24.976Z,60.6850
2022-08-02T01:36:27.213Z,60.7720
2022-08-02T01:37:29.484Z,60.6730
2022-08-02T01:38:29.519Z,60.7460
2022-08-02T01:39:32.409Z,60.5130
2022-08-02T01:40:34.061Z,60.4650
2022-08-02T01:41:36.294Z,60.4320
2022-08-02T01:42:38.548Z,60.4590
2022-08-02T01:43:40.787Z,60.6740
2022-08-02T01:44:43.040Z,60.2430
2022-08-02T01:45:45.286Z,60.1620
2022-08-02T01:46:47.465Z,59.8930
2022-08-02T01:47:49.683Z,59.7760
2022-08-02T01:48:51.973Z,60.0090
2022-08-02T01:49:54.091Z,59.9160
2022-08-02T01:50:54.234Z,60.0400
2022-08-02T01:51:56.449Z,60.4310
2022-08-02T01:52:58.701Z,60.6000
2022-08-02T01:54:00.951Z,60.7400
2022-08-02T01:55:03.230Z,60.8830
2022-08-02T01:56:05.524Z,60.8380
2022-08-02T01:57:07.775Z,60.6910
2022-08-02T01:58:10.060Z,60.6050
2022-08-02T01:59:10.210Z,60.6730
2022-08-02T02:00:11.334Z,60.7560
2022-08-02T02:01:14.412Z,60.7440
2022-08-02T02:02:14.918Z,60.8390
2022-08-02T02:03:17.049Z,61.0110
2022-08-02T02:04:19.330Z,61.0550
2022-08-02T02:05:21.617Z,61.0180
2022-08-02T02:06:21.768Z,61.1080
2022-08-02T02:07:24.019Z,61.1520
2022-08-02T02:08:27.301Z,61.1320
2022-08-02T02:09:28.522Z,60.7830
2022-08-02T02:10:30.811Z,60.8140
2022-08-02T02:12:12.314Z,60.8620
2022-08-02T02:12:35.463Z,60.9490
2022-08-02T02:13:35.602Z,60.6760
2022-08-02T02:14:37.877Z,60.5830
2022-08-02T02:15:40.179Z,60.4970
2022-08-02T02:16:42.494Z,60.4430
2022-08-02T02:18:10.547Z,60.5280
2022-08-02T02:18:47.057Z,60.5890
2022-08-02T02:19:49.338Z,60.7180
2022-08-02T02:20:49.487Z,60.7860
2022-08-02T02:21:51.814Z,60.7850
2022-08-02T02:22:54.063Z,60.4920
2022-08-02T02:23:56.359Z,60.5350
2022-08-02T02:24:58.616Z,60.5140
2022-08-02T02:26:00.884Z,60.4120
2022-08-02T02:27:03.155Z,60.5150
2022-08-02T02:28:05.386Z,60.0670
2022-08-02T02:29:05.496Z,60.0650
2022-08-02T02:30:07.740Z,60.1360
2022-08-02T02:31:09.987Z,60.3130
2022-08-02T02:32:12.673Z,60.1400
2022-08-02T02:33:14.465Z,60.1450
2022-08-02T02:34:16.736Z,60.1120
2022-08-02T02:35:18.908Z,59.9420
2022-08-02T02:36:21.126Z,59.9050
2022-08-02T02:37:23.380Z,59.8560
2022-08-02T02:38:25.583Z,59.6650
2022-08-02T02:39:25.701Z,59.9180
2022-08-02T02:40:27.968Z,60.0780
2022-08-02T02:41:30.224Z,60.2730
2022-08-02T02:42:32.513Z,60.2300
2022-08-02T02:43:34.748Z,60.3860
2022-08-02T02:44:37.048Z,60.4390
2022-08-02T02:45:39.361Z,60.4270
2022-08-02T02:46:41.591Z,60.5060
2022-08-02T02:47:43.818Z,60.6040
2022-08-02T02:48:43.888Z,60.6990
2022-08-02T02:49:46.165Z,60.5140
2022-08-02T02:50:48.417Z,60.4450
2022-08-02T02:51:50.672Z,60.4530
2022-08-02T02:52:52.948Z,60.5090
2022-08-02T02:54:30.089Z,60.3510
2022-08-02T02:54:57.457Z,60.3540
2022-08-02T02:56:01.693Z,60.1140
2022-08-02T02:57:02.006Z,60.2600
2022-08-02T02:58:02.167Z,60.4900
2022-08-02T02:59:04.442Z,60.5020
2022-08-02T03:00:06.739Z,60.3290
2022-08-02T03:01:09.073Z,60.0910
2022-08-02T03:02:11.615Z,59.8670
2022-08-02T03:03:13.560Z,60.1480
2022-08-02T03:04:15.781Z,60.2770
2022-08-02T03:05:15.890Z,60.3400
2022-08-02T03:06:18.148Z,60.5240
2022-08-02T03:07:20.442Z,60.3570
2022-08-02T03:08:22.690Z,60.1720
2022-08-02T03:09:24.929Z,60.0450
2022-08-02T03:10:27.197Z,60.1270
2022-08-02T03:11:29.474Z,60.2640
2022-08-02T03:12:32.560Z,60.1950
2022-08-02T03:13:33.229Z,60.0960
2022-08-02T03:14:34.104Z,60.1120
2022-08-02T03:15:36.387Z,60.0960
2022-08-02T03:16:38.646Z,60.1330
2022-08-02T03:17:40.906Z,60.1910
2022-08-02T03:18:43.181Z,60.1760
2022-08-02T03:19:45.395Z,60.0120
2022-08-02T03:20:47.634Z,60.1480
2022-08-02T03:21:57.325Z,60.0420
2022-08-02T03:22:50.042Z,60.1700
2022-08-02T03:23:52.355Z,60.1110
2022-08-02T03:24:54.577Z,60.0910
2022-08-02T03:25:56.819Z,59.8470
2022-08-02T03:26:59.100Z,60.0240
2022-08-02T03:28:01.386Z,60.0430
2022-08-02T03:29:10.023Z,60.0430
2022-08-02T03:30:05.982Z,59.7780
2022-08-02T03:31:06.113Z,59.7420
2022-08-02T03:32:08.584Z,59.8150
2022-08-02T03:33:10.683Z,59.9570
2022-08-02T03:34:12.998Z,59.8620
2022-08-02T03:35:18.596Z,59.8770
2022-08-02T03:36:15.389Z,59.7550
2022-08-02T03:37:17.644Z,59.5400
2022-08-02T03:38:19.913Z,59.4650
2022-08-02T03:39:22.213Z,59.3350
2022-08-02T03:40:24.504Z,59.2870
2022-08-02T03:41:26.932Z,59.3730
2022-08-02T03:42:27.127Z,59.6420
2022-08-02T03:43:29.286Z,59.6790
2022-08-02T03:44:31.577Z,59.6470
2022-08-02T03:45:33.787Z,59.5550
2022-08-02T03:46:36.000Z,59.3560
2022-08-02T03:47:38.223Z,59.4930
2022-08-02T03:48:40.454Z,59.8750
2022-08-02T03:49:42.769Z,59.9650
2022-08-02T03:50:44.977Z,60.0650
2022-08-02T03:51:47.263Z,60.1340
2022-08-02T03:52:47.402Z,59.9490
2022-08-02T03:53:49.675Z,59.8700
2022-08-02T03:54:51.967Z,59.7730
2022-08-02T03:55:55.944Z,59.7490
2022-08-02T03:56:56.400Z,59.9860
2022-08-02T03:57:58.648Z,59.9970
2022-08-02T03:59:00.909Z,59.9240
2022-08-02T04:00:03.199Z,60.0790
2022-08-02T04:01:05.544Z,60.1930
2022-08-02T04:02:07.881Z,60.1280
2022-08-02T04:03:07.781Z,59.9860
2022-08-02T04:04:10.020Z,60.1780
2022-08-02T04:05:12.299Z,60.2890
2022-08-02T04:06:15.793Z,60.2820
2022-08-02T04:08:02.483Z,60.1390
2022-08-02T04:08:35.688Z,60.1750
2022-08-02T04:09:21.342Z,60.0240
2022-08-02T04:10:23.654Z,60.0660
2022-08-02T04:11:23.750Z,60.0110
2022-08-02T04:12:26.014Z,59.9590
2022-08-02T04:13:31.644Z,59.8630
2022-08-02T04:14:28.337Z,59.8580
2022-08-02T04:15:30.679Z,59.7580
2022-08-02T04:16:30.743Z,59.8300
2022-08-02T04:17:33.019Z,59.8940
2022-08-02T04:18:35.281Z,59.8160
2022-08-02T04:19:37.556Z,59.7720
2022-08-02T04:20:39.836Z,59.8270
2022-08-02T04:21:51.734Z,60.2320
2022-08-02T04:22:44.290Z,60.4190
2022-08-02T04:23:46.537Z,60.3380
2022-08-02T04:24:46.658Z,60.4220
2022-08-02T04:25:48.956Z,60.4980
2022-08-02T04:26:51.199Z,60.7690
2022-08-02T04:28:17.643Z,60.9890
2022-08-02T04:28:55.656Z,61.0150
2022-08-02T04:29:57.940Z,60.9720
2022-08-02T04:31:00.237Z,60.7770
2022-08-02T04:32:02.426Z,60.8170
2022-08-02T04:33:04.697Z,60.8570
2022-08-02T04:34:06.953Z,60.8310
2022-08-02T04:35:22.519Z,60.7810
2022-08-02T04:36:09.461Z,60.7520
2022-08-02T04:37:11.758Z,60.7590
2022-08-02T04:38:14.074Z,60.7150
2022-08-02T04:39:16.392Z,60.6600
2022-08-02T04:40:18.718Z,60.8460
2022-08-02T04:41:18.922Z,61.5670
2022-08-02T04:42:21.236Z,61.9830
2022-08-02T04:43:23.575Z,62.1960
2022-08-02T04:44:25.910Z,62.5190
2022-08-02T04:45:28.267Z,63.3070
2022-08-02T04:46:28.509Z,63.8470
2022-08-02T04:48:02.589Z,63.8190
2022-08-02T04:48:33.219Z,63.7190
2022-08-02T04:49:35.704Z,63.5000
2022-08-02T04:50:35.782Z,63.3180
2022-08-02T04:51:38.870Z,63.9670
2022-08-02T04:52:44.080Z,63.7000
2022-08-02T04:53:42.799Z,64.1870
2022-08-02T04:54:45.142Z,63.9340
2022-08-02T04:55:47.492Z,63.7450
2022-08-02T04:56:49.877Z,63.9720
2022-08-02T04:57:53.038Z,63.8830
2022-08-02T04:58:52.393Z,63.3010
2022-08-02T04:59:54.806Z,64.0960
2022-08-02T05:00:57.289Z,64.4320
2022-08-02T05:01:59.523Z,64.2230
2022-08-02T05:02:59.705Z,64.2260
2022-08-02T05:04:02.084Z,63.8900
2022-08-02T05:05:08.313Z,64.0870
2022-08-02T05:06:13.278Z,64.1860
2022-08-02T05:07:09.241Z,64.1410
2022-08-02T05:08:09.444Z,64.5710
2022-08-02T05:09:11.830Z,64.5210
2022-08-02T05:10:14.225Z,64.7040
2022-08-02T05:11:16.596Z,64.7400
2022-08-02T05:12:16.837Z,64.2890
2022-08-02T05:13:19.142Z,63.8530
2022-08-02T05:14:21.489Z,63.2200
2022-08-02T05:15:23.816Z,62.5580
2022-08-02T05:16:31.050Z,61.8680
2022-08-02T05:17:26.380Z,61.7920
2022-08-02T05:18:28.686Z,61.4820
2022-08-02T05:19:31.021Z,61.5560
2022-08-02T05:20:33.370Z,61.4340
2022-08-02T05:21:35.697Z,61.0500
2022-08-02T05:22:38.032Z,61.2720
2022-08-02T05:23:38.171Z,61.3200
2022-08-02T05:24:40.494Z,61.4340
2022-08-02T05:25:42.833Z,61.3410
2022-08-02T05:26:45.131Z,61.0910
2022-08-02T05:27:47.465Z,61.3640
2022-08-02T05:28:49.743Z,61.4940
2022-08-02T05:29:53.140Z,61.3410
2022-08-02T05:30:52.230Z,61.4180
2022-08-02T05:31:54.533Z,60.9490
2022-08-02T05:32:56.873Z,61.2200
2022-08-02T05:33:59.177Z,61.1830
2022-08-02T05:35:01.430Z,60.7160
2022-08-02T05:36:03.742Z,60.4160
2022-08-02T05:37:08.983Z,60.0930
2022-08-02T05:38:10.099Z,59.9110
2022-08-02T05:39:11.473Z,59.8200
2022-08-02T05:40:13.457Z,59.8120
2022-08-02T05:41:13.034Z,59.7580
2022-08-02T05:42:15.341Z,59.6940
2022-08-02T05:43:17.676Z,59.6850
2022-08-02T05:44:19.887Z,59.5940
2022-08-02T05:45:22.158Z,59.5010
2022-08-02T05:46:24.405Z,59.5270
2022-08-02T05:47:26.736Z,59.6240
2022-08-02T05:48:31.695Z,59.6350
2022-08-02T05:49:29.366Z,59.5940
2022-08-02T05:50:31.611Z,59.5980
2022-08-02T05:51:33.970Z,59.6350
2022-08-02T05:52:36.328Z,59.6350
2022-08-02T05:53:36.574Z,59.6410
2022-08-02T05:54:39.643Z,59.5300
2022-08-02T05:55:41.263Z,59.4390
2022-08-02T05:56:43.592Z,59.4640
2022-08-02T05:57:45.949Z,59.3320
2022-08-02T05:58:46.200Z,59.2030
2022-08-02T05:59:48.452Z,59.0970
2022-08-02T06:00:50.711Z,58.9020
2022-08-02T06:01:53.087Z,58.9140
2022-08-02T06:02:55.227Z,58.8730
2022-08-02T06:03:57.474Z,58.7900
2022-08-02T06:04:59.783Z,58.7120
2022-08-02T06:05:59.976Z,58.6140
2022-08-02T06:07:02.271Z,58.6200
2022-08-02T06:08:04.630Z,58.4750
2022-08-02T06:09:06.989Z,58.4220
2022-08-02T06:10:09.302Z,58.3840
2022-08-02T06:11:09.438Z,58.4280
2022-08-02T06:12:11.958Z,58.5790
2022-08-02T06:13:14.503Z,58.4290
2022-08-02T06:14:16.483Z,58.3610
2022-08-02T06:15:18.742Z,58.4150
2022-08-02T06:16:32.558Z,58.4280
2022-08-02T06:17:21.263Z,58.3670
2022-08-02T06:18:28.350Z,58.3310
2022-08-02T06:19:25.899Z,58.2880
2022-08-02T06:20:28.160Z,58.2760
2022-08-02T06:22:31.847Z,58.1370
2022-08-02T06:22:40.800Z,58.2510
2022-08-02T06:23:32.932Z,58.2510
2022-08-02T06:24:35.296Z,58.4410
2022-08-02T06:25:50.753Z,58.4290
2022-08-02T06:26:39.957Z,58.3670
2022-08-02T06:27:42.301Z,58.3370
2022-08-02T06:28:42.494Z,58.3180
2022-08-02T06:29:44.848Z,58.2030
2022-08-02T06:30:47.098Z,58.3110
2022-08-02T06:31:49.375Z,58.3550
2022-08-02T06:32:51.655Z,58.2270
2022-08-02T06:33:53.911Z,58.1740
2022-08-02T06:34:56.166Z,58.2120
2022-08-02T06:35:58.389Z,58.1700
2022-08-02T06:36:58.541Z,58.1120
2022-08-02T06:38:00.834Z,58.0900
2022-08-02T06:39:03.113Z,58.0570
2022-08-02T06:40:05.433Z,58.1030
2022-08-02T06:41:07.694Z,58.0900
2022-08-02T06:42:10.381Z,58.0600
2022-08-02T06:43:10.083Z,58.0300
2022-08-02T06:44:45.605Z,58.1030
2022-08-02T06:45:14.689Z,58.1370
2022-08-02T06:46:38.076Z,58.2420
2022-08-02T06:47:19.239Z,58.2230
2022-08-02T06:48:21.539Z,58.3530
2022-08-02T06:49:21.801Z,58.2680
2022-08-02T06:50:24.013Z,58.2890
2022-08-02T06:51:26.290Z,58.2830
2022-08-02T06:54:14.875Z,58.5300
2022-08-02T06:55:17.108Z,58.7750
2022-08-02T06:56:19.390Z,58.7950
2022-08-02T06:57:21.627Z,58.7280
2022-08-02T06:58:23.889Z,58.7620
2022-08-02T06:59:26.126Z,58.9540
2022-08-02T07:00:28.385Z,58.7880
2022-08-02T07:01:38.701Z,58.7390
2022-08-02T07:02:30.771Z,58.6970
2022-08-02T07:03:33.083Z,58.5750
2022-08-02T07:04:35.338Z,58.6230
2022-08-02T07:05:37.603Z,58.6350
2022-08-02T07:06:37.750Z,58.6540
2022-08-02T07:07:40.009Z,58.6070
2022-08-02T07:08:47.780Z,58.5270
2022-08-02T07:10:00.090Z,58.6890
2022-08-02T07:10:46.758Z,58.6610
2022-08-02T07:11:49.079Z,58.6680
2022-08-02T07:12:51.323Z,58.6960
2022-08-02T07:13:53.618Z,58.7690
2022-08-02T07:14:55.910Z,58.7560
2022-08-02T07:15:58.204Z,58.7020
2022-08-02T07:17:00.642Z,58.6610
2022-08-02T07:18:00.590Z,58.6610
2022-08-02T07:19:02.835Z,58.6600
2022-08-02T07:20:05.085Z,58.6790
2022-08-02T07:21:08.674Z,58.6740
2022-08-02T07:22:09.532Z,58.8480
2022-08-02T07:23:11.695Z,58.6890
2022-08-02T07:24:13.906Z,58.5150
2022-08-02T07:25:16.077Z,58.6470
2022-08-02T07:26:18.336Z,59.9680
2022-08-02T07:27:18.495Z,60.4800
2022-08-02T07:28:24.371Z,60.6640
2022-08-02T07:29:23.087Z,60.8870
2022-08-02T07:30:25.393Z,61.5170
2022-08-02T07:31:27.678Z,62.0020
2022-08-02T07:32:30.197Z,61.9400
2022-08-02T07:33:37.527Z,61.5980
2022-08-02T07:34:32.463Z,61.5180
2022-08-02T07:35:34.725Z,61.1770
2022-08-02T07:36:36.991Z,61.4950
2022-08-02T07:37:53.962Z,61.4340
2022-08-02T07:38:39.362Z,61.6440
2022-08-02T07:39:41.632Z,61.7040
2022-08-02T07:40:43.854Z,61.8730
2022-08-02T07:41:46.109Z,61.5600
2022-08-02T07:42:46.262Z,62.1770
2022-08-02T07:43:48.461Z,62.0150
2022-08-02T07:44:50.697Z,61.7670
2022-08-02T07:45:57.169Z,62.1460
2022-08-02T07:46:55.237Z,61.7790
2022-08-02T07:47:57.544Z,61.2140
2022-08-02T07:48:59.785Z,60.7830
2022-08-02T07:50:02.020Z,60.4370
2022-08-02T07:51:02.179Z,60.4270
2022-08-02T07:52:04.479Z,60.2980
2022-08-02T07:53:06.811Z,59.7080
2022-08-02T07:54:09.063Z,59.6100
2022-08-02T07:55:09.188Z,59.4300
2022-08-02T07:56:11.424Z,59.5350
2022-08-02T07:57:13.671Z,59.3470
2022-08-02T07:58:15.934Z,59.4550
2022-08-02T07:59:18.129Z,59.1250
2022-08-02T08:00:20.368Z,59.3390
2022-08-02T08:01:22.693Z,59.3460
2022-08-02T08:02:24.857Z,59.0550
2022-08-02T08:03:27.139Z,59.0920
2022-08-02T08:04:29.364Z,58.8220
2022-08-02T08:05:31.652Z,58.8320
2022-08-02T08:06:33.937Z,58.8280
2022-08-02T08:07:36.223Z,58.8750
2022-08-02T08:08:38.487Z,58.7420
2022-08-02T08:09:40.712Z,58.8690
2022-08-02T08:10:43.000Z,58.8690
2022-08-02T08:11:45.292Z,58.7010
2022-08-02T08:12:47.600Z,58.6150
2022-08-02T08:13:49.937Z,58.7980
2022-08-02T08:14:52.205Z,58.6390
2022-08-02T08:15:54.507Z,58.6070
2022-08-02T08:16:56.793Z,58.4190
2022-08-02T08:17:56.920Z,58.3810
2022-08-02T08:18:59.252Z,58.4260
2022-08-02T08:20:01.516Z,58.3400
2022-08-02T08:21:04.212Z,58.7410
2022-08-02T08:22:06.092Z,58.4420
2022-08-02T08:23:08.478Z,58.6210
2022-08-02T08:24:10.667Z,58.4470
2022-08-02T08:25:10.774Z,58.2480
2022-08-02T08:26:15.777Z,58.4870
2022-08-02T08:27:15.280Z,58.5950
2022-08-02T08:28:17.550Z,58.3400
2022-08-02T08:29:19.811Z,58.1560
2022-08-02T08:30:22.071Z,58.4610
2022-08-02T08:31:24.342Z,58.3090
2022-08-02T08:32:26.630Z,58.2290
2022-08-02T08:33:28.933Z,58.4790
2022-08-02T08:34:31.265Z,58.3930
2022-08-02T08:35:33.516Z,58.3460
2022-08-02T08:36:33.616Z,58.3520
2022-08-02T08:37:35.887Z,58.2120
2022-08-02T08:38:38.175Z,57.8260
2022-08-02T08:39:53.600Z,58.2920
2022-08-02T08:40:40.520Z,58.2720
2022-08-02T08:41:42.765Z,58.1390
2022-08-02T08:42:44.998Z,57.9800
2022-08-02T08:43:52.856Z,58.1440
2022-08-02T08:44:49.610Z,58.3830
2022-08-02T08:45:55.879Z,58.0090
2022-08-02T08:46:54.167Z,57.9610
2022-08-02T08:47:56.463Z,58.1120
2022-08-02T08:48:58.754Z,58.0470
2022-08-02T08:50:01.041Z,57.8990
2022-08-02T08:51:03.287Z,57.9790
2022-08-02T08:52:03.429Z,57.6460
2022-08-02T08:53:05.685Z,57.8140
2022-08-02T08:54:07.938Z,58.0520
2022-08-02T08:55:10.200Z,57.8200
2022-08-02T08:56:15.903Z,57.7430
2022-08-02T08:57:14.575Z,57.8260
2022-08-02T08:58:16.806Z,57.9960
2022-08-02T08:59:19.025Z,57.6140
2022-08-02T09:00:21.273Z,57.8220
2022-08-02T09:01:21.398Z,57.9080
2022-08-02T09:02:28.149Z,57.7560
2022-08-02T09:03:25.888Z,57.6380
2022-08-02T09:04:28.171Z,57.7500
2022-08-02T09:05:28.348Z,57.8960
2022-08-02T09:06:30.612Z,57.6220
2022-08-02T09:07:32.905Z,57.5680
2022-08-02T09:08:35.192Z,57.4370
2022-08-02T09:09:37.467Z,57.6040
2022-08-02T09:10:39.777Z,57.7370
2022-08-02T09:11:42.023Z,57.7030
2022-08-02T09:12:44.253Z,57.5440
2022-08-02T09:13:46.444Z,57.3520
2022-08-02T09:14:50.075Z,57.3670
2022-08-02T09:15:50.848Z,57.5550
2022-08-02T09:16:52.948Z,57.5100
2022-08-02T09:17:55.146Z,57.3930
2022-08-02T09:18:57.383Z,57.4650
2022-08-02T09:19:59.668Z,57.2470
2022-08-02T09:21:02.000Z,57.3760
2022-08-02T09:22:02.094Z,57.5080
2022-08-02T09:23:04.330Z,57.4610
2022-08-02T09:24:06.598Z,57.2300
2022-08-02T09:25:08.890Z,57.2370
2022-08-02T09:26:09.027Z,57.4270
2022-08-02T09:27:11.288Z,57.3820
2022-08-02T09:28:13.573Z,57.2370
2022-08-02T09:29:15.848Z,57.2160
2022-08-02T09:30:15.992Z,57.2540
2022-08-02T09:31:18.328Z,57.1860
2022-08-02T09:32:20.520Z,57.2890
2022-08-02T09:33:22.737Z,57.3700
2022-08-02T09:34:24.963Z,57.3190
2022-08-02T09:35:27.199Z,57.1370
2022-08-02T09:36:29.466Z,57.1620
2022-08-02T09:37:31.620Z,57.2970
2022-08-02T09:38:33.784Z,57.1820
2022-08-02T09:39:33.869Z,57.1520
2022-08-02T09:40:36.126Z,57.1330
2022-08-02T09:41:38.396Z,57.2100
2022-08-02T09:42:40.602Z,57.1670
2022-08-02T09:44:03.845Z,57.1250
2022-08-02T09:44:45.004Z,57.1200
2022-08-02T09:45:47.216Z,57.0170
2022-08-02T09:46:49.414Z,56.9940
2022-08-02T09:47:51.579Z,57.1330
2022-08-02T09:48:53.844Z,57.1310
2022-08-02T09:49:55.999Z,57.0520
2022-08-02T09:50:58.206Z,56.9580
2022-08-02T09:52:00.427Z,56.9580
2022-08-02T09:53:02.576Z,56.9450
2022-08-02T09:54:09.431Z,56.9160
2022-08-02T09:55:04.878Z,56.9260
2022-08-02T09:56:08.891Z,56.9090
2022-08-02T09:57:09.317Z,56.9160
2022-08-02T09:58:11.500Z,56.9030
2022-08-02T09:59:11.533Z,56.8110
2022-08-02T10:00:16.249Z,56.7860
2022-08-02T10:01:16.019Z,56.8970
2022-08-02T10:02:22.795Z,56.7930
2022-08-02T10:03:22.623Z,56.8050
2022-08-02T10:04:24.802Z,56.8060
2022-08-02T10:05:24.804Z,56.7800
2022-08-02T10:06:27.034Z,56.7580
2022-08-02T10:07:29.299Z,56.7740
2022-08-02T10:08:33.289Z,56.7520
2022-08-02T10:09:33.805Z,56.7390
2022-08-02T10:10:36.045Z,56.7140
2022-08-02T10:11:38.300Z,56.7140
2022-08-02T10:12:38.455Z,56.6670
2022-08-02T10:13:40.745Z,56.6140
2022-08-02T10:14:43.171Z,56.6010
2022-08-02T10:15:50.402Z,56.6010
2022-08-02T10:16:45.334Z,56.6070
2022-08-02T10:17:47.553Z,56.6070
2022-08-02T10:18:49.687Z,56.5460
2022-08-02T10:20:03.329Z,56.5860
2022-08-02T10:20:54.123Z,56.5400
2022-08-02T10:21:56.362Z,56.5520
2022-08-02T10:22:58.605Z,56.4160
2022-08-02T10:24:00.751Z,56.3970
2022-08-02T10:25:02.917Z,56.4230
2022-08-02T10:26:05.124Z,56.3570
2022-08-02T10:27:05.181Z,56.2780
2022-08-02T10:28:07.427Z,56.1610
2022-08-02T10:29:09.645Z,56.0740
2022-08-02T10:30:11.852Z,56.0170
2022-08-02T10:31:14.094Z,56.0890
2022-08-02T10:32:14.783Z,56.0360
2022-08-02T10:33:16.434Z,55.9300
2022-08-02T10:34:18.616Z,55.8600
2022-08-02T10:35:25.553Z,55.8190
2022-08-02T10:36:23.022Z,55.7150
2022-08-02T10:37:23.092Z,55.6560
2022-08-02T10:38:25.337Z,55.6230
2022-08-02T10:39:27.556Z,55.6100
2022-08-02T10:40:29.792Z,55.5420
2022-08-02T10:41:32.020Z,55.4960
2022-08-02T10:42:34.261Z,55.5170
2022-08-02T10:43:36.511Z,55.4700
2022-08-02T10:44:38.687Z,55.4870
2022-08-02T10:45:40.883Z,55.4110
2022-08-02T10:46:40.943Z,55.5090
2022-08-02T10:47:43.149Z,55.4110
2022-08-02T10:48:45.385Z,55.4210
2022-08-02T10:49:47.628Z,55.3490
2022-08-02T10:50:49.829Z,55.2560
2022-08-02T10:51:49.929Z,55.2290
2022-08-02T10:52:52.139Z,55.2860
2022-08-02T10:53:54.410Z,55.1570
2022-08-02T10:54:56.736Z,55.1240
2022-08-02T10:55:58.866Z,55.0370
2022-08-02T10:57:01.508Z,55.0580
2022-08-02T10:58:03.355Z,54.9140
2022-08-02T10:59:05.629Z,54.8890
2022-08-02T11:00:07.840Z,54.9840
2022-08-02T11:01:10.175Z,54.9380
2022-08-02T11:02:12.711Z,55.0200
2022-08-02T11:03:14.547Z,54.9440
2022-08-02T11:04:16.816Z,54.8130
2022-08-02T11:05:19.023Z,54.8410
2022-08-02T11:06:25.815Z,54.8100
2022-08-02T11:07:23.544Z,54.9020
2022-08-02T11:08:25.756Z,54.8790
2022-08-02T11:09:31.755Z,54.8240
2022-08-02T11:10:30.284Z,54.8410
2022-08-02T11:11:54.325Z,54.8660
2022-08-02T11:12:32.649Z,54.8850
2022-08-02T11:13:34.877Z,54.8070
2022-08-02T11:14:37.159Z,54.7760
2022-08-02T11:15:39.366Z,54.8480
2022-08-02T11:16:41.599Z,54.9510
2022-08-02T11:17:43.845Z,54.8180
2022-08-02T11:18:46.091Z,54.9370
2022-08-02T11:19:48.356Z,54.8060
2022-08-02T11:20:50.579Z,54.9090
2022-08-02T11:21:52.837Z,54.9810
2022-08-02T11:22:55.094Z,54.9200
2022-08-02T11:23:57.315Z,54.9200
2022-08-02T11:24:59.810Z,54.9540
2022-08-02T11:26:05.413Z,54.8950
2022-08-02T11:27:04.010Z,54.8880
2022-08-02T11:28:06.270Z,54.8360
2022-08-02T11:29:08.512Z,54.9670
2022-08-02T11:30:10.994Z,54.9200
2022-08-02T11:31:12.985Z,55.0190
2022-08-02T11:32:15.590Z,55.0580
2022-08-02T11:33:17.429Z,54.9260
2022-08-02T11:34:37.763Z,54.9080
2022-08-02T11:35:21.998Z,55.0380
2022-08-02T11:36:24.213Z,55.0510
2022-08-02T11:37:26.383Z,54.9270
2022-08-02T11:38:28.592Z,54.9930
2022-08-02T11:39:30.793Z,54.7550
2022-08-02T11:40:35.498Z,54.9820
2022-08-02T11:41:46.655Z,54.8710
2022-08-02T11:42:37.473Z,54.8330
2022-08-02T11:43:39.716Z,54.8690
2022-08-02T11:44:41.968Z,54.8520
2022-08-02T11:45:44.236Z,54.9090
2022-08-02T11:46:46.446Z,54.8690
2022-08-02T11:47:48.682Z,54.7810
2022-08-02T11:48:50.978Z,54.8920
2022-08-02T11:49:53.126Z,54.7840
2022-08-02T11:50:53.208Z,54.9000
2022-08-02T11:51:55.414Z,54.9400
2022-08-02T11:52:57.662Z,54.8810
2022-08-02T11:53:59.867Z,54.8140
2022-08-02T11:55:02.161Z,54.8330
2022-08-02T11:56:04.336Z,54.8990
2022-08-02T11:57:06.536Z,54.8920
2022-08-02T11:58:08.781Z,54.9110
2022-08-02T11:59:14.536Z,54.9450
2022-08-02T12:00:11.080Z,54.8820
2022-08-02T12:01:13.365Z,54.8880
2022-08-02T12:02:15.601Z,54.8690
2022-08-02T12:03:19.781Z,54.9090
2022-08-02T12:04:22.815Z,54.9160
2022-08-02T12:05:24.693Z,54.8880
2022-08-02T12:06:24.552Z,54.8230
2022-08-02T12:07:34.861Z,54.8990
2022-08-02T12:08:28.915Z,54.8210
2022-08-02T12:09:31.104Z,54.8500
2022-08-02T12:10:33.302Z,54.8670
2022-08-02T12:11:38.842Z,54.8610
2022-08-02T12:12:37.742Z,54.9120
2022-08-02T12:13:39.980Z,54.8670
2022-08-02T12:14:42.169Z,54.8610
2022-08-02T12:15:44.377Z,54.8570
2022-08-02T12:16:46.610Z,54.9040
2022-08-02T12:17:48.778Z,54.7540
2022-08-02T12:18:48.859Z,54.9160
2022-08-02T12:19:51.082Z,54.8040
2022-08-02T12:20:53.300Z,54.8200
2022-08-02T12:21:55.573Z,54.7860
2022-08-02T12:22:57.759Z,54.6700
2022-08-02T12:24:01.348Z,54.7120
2022-08-02T12:25:02.256Z,54.7630
2022-08-02T12:26:04.492Z,54.7570
2022-08-02T12:27:06.742Z,54.7190
2022-08-02T12:28:08.952Z,54.7250
2022-08-02T12:29:11.204Z,54.7840
2022-08-02T12:30:13.453Z,54.7360
2022-08-02T12:31:15.667Z,54.6880
2022-08-02T12:32:17.937Z,54.7300